sensor_id;sensor_type;location;lat;lon;timestamp;pressure;altitude;pressure_sealevel;temperature;humidity
70968;BME280;58629;48.808;8.820;2023-08-31T00:01:39;96604.59;;;12.09;100.00
70968;BME280;58629;48.808;8.820;2023-08-31T00:04:05;96602.78;;;12.06;100.00
70968;BME280;58629;48.808;8.820;2023-08-31T00:06:33;96604.28;;;12.07;100.00
70968;BME280;58629;48.808;8.820;2023-08-31T00:08:59;96607.47;;;12.02;100.00
70968;BME280;58629;48.808;8.820;2023-08-31T00:11:25;96603.97;;;12.05;100.00
70968;BME280;58629;48.808;8.820;2023-08-31T00:13:51;96606.44;;;12.00;100.00
70968;BME280;58629;48.808;8.820;2023-08-31T00:16:17;96610.66;;;11.97;100.00
70968;BME280;58629;48.808;8.820;2023-08-31T00:18:42;96615.66;;;11.95;100.00
70968;BME280;58629;48.808;8.820;2023-08-31T00:21:10;96619.16;;;11.92;100.00
70968;BME280;58629;48.808;8.820;2023-08-31T00:23:35;96619.81;;;11.84;100.00
70968;BME280;58629;48.808;8.820;2023-08-31T00:26:02;96627.47;;;11.82;100.00
70968;BME280;58629;48.808;8.820;2023-08-31T00:28:27;96628.53;;;11.84;100.00
70968;BME280;58629;48.808;8.820;2023-08-31T00:30:53;96629.25;;;11.85;100.00
70968;BME280;58629;48.808;8.820;2023-08-31T00:33:18;96639.84;;;11.85;100.00
70968;BME280;58629;48.808;8.820;2023-08-31T00:35:43;96631.91;;;11.85;100.00
70968;BME280;58629;48.808;8.820;2023-08-31T00:38:12;96633.41;;;11.86;100.00
70968;BME280;58629;48.808;8.820;2023-08-31T00:40:42;96622.78;;;11.86;100.00
70968;BME280;58629;48.808;8.820;2023-08-31T00:43:10;96625.00;;;11.87;100.00
70968;BME280;58629;48.808;8.820;2023-08-31T00:45:37;96614.81;;;11.86;100.00
70968;BME280;58629;48.808;8.820;2023-08-31T00:48:04;96608.34;;;11.87;100.00
70968;BME280;58629;48.808;8.820;2023-08-31T00:50:30;96605.81;;;11.83;100.00
70968;BME280;58629;48.808;8.820;2023-08-31T00:52:55;96606.25;;;11.82;100.00
70968;BME280;58629;48.808;8.820;2023-08-31T00:55:22;96610.91;;;11.78;100.00
70968;BME280;58629;48.808;8.820;2023-08-31T00:57:47;96612.50;;;11.75;100.00
70968;BME280;58629;48.808;8.820;2023-08-31T01:00:13;96611.53;;;11.69;100.00
70968;BME280;58629;48.808;8.820;2023-08-31T01:03:01;96619.19;;;11.67;100.00
70968;BME280;58629;48.808;8.820;2023-08-31T01:05:46;96618.50;;;11.63;100.00
70968;BME280;58629;48.808;8.820;2023-08-31T01:08:41;96612.38;;;11.54;100.00
70968;BME280;58629;48.808;8.820;2023-08-31T01:11:30;96634.00;;;11.52;100.00
70968;BME280;58629;48.808;8.820;2023-08-31T01:14:02;96634.53;;;11.47;100.00
70968;BME280;58629;48.808;8.820;2023-08-31T01:16:34;96627.31;;;11.48;100.00
70968;BME280;58629;48.808;8.820;2023-08-31T01:19:02;96630.81;;;11.45;100.00
70968;BME280;58629;48.808;8.820;2023-08-31T01:21:38;96634.19;;;11.45;100.00
70968;BME280;58629;48.808;8.820;2023-08-31T01:24:06;96636.53;;;11.43;100.00
70968;BME280;58629;48.808;8.820;2023-08-31T01:26:31;96639.94;;;11.44;100.00
70968;BME280;58629;48.808;8.820;2023-08-31T01:28:57;96647.66;;;11.38;100.00
70968;BME280;58629;48.808;8.820;2023-08-31T01:31:23;96641.72;;;11.34;100.00
70968;BME280;58629;48.808;8.820;2023-08-31T01:33:48;96650.94;;;11.29;100.00
70968;BME280;58629;48.808;8.820;2023-08-31T01:36:22;96655.41;;;11.32;100.00
70968;BME280;58629;48.808;8.820;2023-08-31T01:38:51;96653.09;;;11.34;100.00
70968;BME280;58629;48.808;8.820;2023-08-31T01:41:19;96652.00;;;11.32;100.00
70968;BME280;58629;48.808;8.820;2023-08-31T01:43:46;96654.56;;;11.35;100.00
70968;BME280;58629;48.808;8.820;2023-08-31T01:46:13;96652.53;;;11.40;100.00
70968;BME280;58629;48.808;8.820;2023-08-31T01:48:39;96652.22;;;11.38;100.00
70968;BME280;58629;48.808;8.820;2023-08-31T01:51:09;96655.63;;;11.38;100.00
70968;BME280;58629;48.808;8.820;2023-08-31T01:53:34;96650.66;;;11.40;100.00
70968;BME280;58629;48.808;8.820;2023-08-31T01:56:00;96655.84;;;11.44;100.00
70968;BME280;58629;48.808;8.820;2023-08-31T01:58:25;96657.22;;;11.48;100.00
70968;BME280;58629;48.808;8.820;2023-08-31T02:00:51;96660.94;;;11.51;100.00
70968;BME280;58629;48.808;8.820;2023-08-31T02:03:16;96658.69;;;11.49;100.00
70968;BME280;58629;48.808;8.820;2023-08-31T02:05:41;96660.84;;;11.54;100.00
70968;BME280;58629;48.808;8.820;2023-08-31T02:08:06;96661.59;;;11.55;100.00
70968;BME280;58629;48.808;8.820;2023-08-31T02:10:32;96663.38;;;11.58;100.00
70968;BME280;58629;48.808;8.820;2023-08-31T02:12:57;96651.63;;;11.59;100.00
70968;BME280;58629;48.808;8.820;2023-08-31T02:15:22;96650.78;;;11.62;100.00
70968;BME280;58629;48.808;8.820;2023-08-31T02:17:48;96656.19;;;11.58;100.00
70968;BME280;58629;48.808;8.820;2023-08-31T02:20:13;96654.03;;;11.53;100.00
70968;BME280;58629;48.808;8.820;2023-08-31T02:22:39;96662.97;;;11.59;100.00
70968;BME280;58629;48.808;8.820;2023-08-31T02:25:04;96659.16;;;11.60;100.00
70968;BME280;58629;48.808;8.820;2023-08-31T02:27:30;96661.91;;;11.57;100.00
70968;BME280;58629;48.808;8.820;2023-08-31T02:29:56;96667.50;;;11.46;100.00
70968;BME280;58629;48.808;8.820;2023-08-31T02:32:21;96676.63;;;11.45;100.00
70968;BME280;58629;48.808;8.820;2023-08-31T02:34:47;96672.38;;;11.48;100.00
70968;BME280;58629;48.808;8.820;2023-08-31T02:37:12;96671.97;;;11.49;100.00
70968;BME280;58629;48.808;8.820;2023-08-31T02:39:37;96672.38;;;11.48;100.00
70968;BME280;58629;48.808;8.820;2023-08-31T02:42:03;96675.03;;;11.48;100.00
70968;BME280;58629;48.808;8.820;2023-08-31T02:44:30;96673.13;;;11.48;100.00
70968;BME280;58629;48.808;8.820;2023-08-31T02:46:55;96670.81;;;11.50;100.00
70968;BME280;58629;48.808;8.820;2023-08-31T02:49:21;96681.41;;;11.50;100.00
70968;BME280;58629;48.808;8.820;2023-08-31T02:51:46;96684.50;;;11.49;100.00
70968;BME280;58629;48.808;8.820;2023-08-31T02:54:11;96671.25;;;11.49;100.00
70968;BME280;58629;48.808;8.820;2023-08-31T02:56:37;96681.09;;;11.48;100.00
70968;BME280;58629;48.808;8.820;2023-08-31T02:59:02;96684.16;;;11.47;100.00
70968;BME280;58629;48.808;8.820;2023-08-31T03:01:27;96691.81;;;11.45;100.00
70968;BME280;58629;48.808;8.820;2023-08-31T03:03:53;96686.06;;;11.46;100.00
70968;BME280;58629;48.808;8.820;2023-08-31T03:06:18;96683.09;;;11.44;100.00
70968;BME280;58629;48.808;8.820;2023-08-31T03:08:43;96680.44;;;11.44;100.00
70968;BME280;58629;48.808;8.820;2023-08-31T03:11:09;96692.22;;;11.43;100.00
70968;BME280;58629;48.808;8.820;2023-08-31T03:13:34;96676.72;;;11.42;100.00
70968;BME280;58629;48.808;8.820;2023-08-31T03:16:00;96684.34;;;11.40;100.00
70968;BME280;58629;48.808;8.820;2023-08-31T03:18:25;96688.50;;;11.41;100.00
70968;BME280;58629;48.808;8.820;2023-08-31T03:20:51;96685.09;;;11.40;100.00
70968;BME280;58629;48.808;8.820;2023-08-31T03:23:16;96689.97;;;11.42;100.00
70968;BME280;58629;48.808;8.820;2023-08-31T03:25:42;96696.13;;;11.39;100.00
70968;BME280;58629;48.808;8.820;2023-08-31T03:28:07;96693.50;;;11.39;100.00
70968;BME280;58629;48.808;8.820;2023-08-31T03:30:33;96694.63;;;11.38;100.00
70968;BME280;58629;48.808;8.820;2023-08-31T03:32:58;96700.69;;;11.38;100.00
70968;BME280;58629;48.808;8.820;2023-08-31T03:35:24;96695.72;;;11.40;100.00
70968;BME280;58629;48.808;8.820;2023-08-31T03:37:53;96692.22;;;11.43;100.00
70968;BME280;58629;48.808;8.820;2023-08-31T03:40:18;96688.28;;;11.48;100.00
70968;BME280;58629;48.808;8.820;2023-08-31T03:42:44;96687.78;;;11.53;100.00
70968;BME280;58629;48.808;8.820;2023-08-31T03:45:11;96705.06;;;11.45;100.00
70968;BME280;58629;48.808;8.820;2023-08-31T03:47:36;96705.25;;;11.38;100.00
70968;BME280;58629;48.808;8.820;2023-08-31T03:50:02;96715.94;;;11.34;100.00
70968;BME280;58629;48.808;8.820;2023-08-31T03:52:28;96717.94;;;11.30;100.00
70968;BME280;58629;48.808;8.820;2023-08-31T03:54:53;96723.03;;;11.24;100.00
70968;BME280;58629;48.808;8.820;2023-08-31T03:57:19;96720.38;;;11.24;100.00
70968;BME280;58629;48.808;8.820;2023-08-31T03:59:45;96723.03;;;11.24;100.00
70968;BME280;58629;48.808;8.820;2023-08-31T04:02:10;96724.94;;;11.24;100.00
70968;BME280;58629;48.808;8.820;2023-08-31T04:04:36;96720.47;;;11.21;100.00
70968;BME280;58629;48.808;8.820;2023-08-31T04:07:01;96720.06;;;11.22;100.00
70968;BME280;58629;48.808;8.820;2023-08-31T04:09:27;96726.09;;;11.23;100.00
70968;BME280;58629;48.808;8.820;2023-08-31T04:11:52;96720.38;;;11.24;100.00
70968;BME280;58629;48.808;8.820;2023-08-31T04:14:18;96728.44;;;11.21;100.00
70968;BME280;58629;48.808;8.820;2023-08-31T04:16:44;96730.97;;;11.24;100.00
70968;BME280;58629;48.808;8.820;2023-08-31T04:19:09;96734.78;;;11.23;100.00
70968;BME280;58629;48.808;8.820;2023-08-31T04:21:35;96728.75;;;11.23;100.00
70968;BME280;58629;48.808;8.820;2023-08-31T04:24:01;96726.84;;;11.23;100.00
70968;BME280;58629;48.808;8.820;2023-08-31T04:26:26;96724.19;;;11.23;100.00
70968;BME280;58629;48.808;8.820;2023-08-31T04:28:52;96735.84;;;11.26;100.00
70968;BME280;58629;48.808;8.820;2023-08-31T04:31:18;96733.34;;;11.35;100.00
70968;BME280;58629;48.808;8.820;2023-08-31T04:33:43;96743.28;;;11.31;100.00
70968;BME280;58629;48.808;8.820;2023-08-31T04:36:08;96739.91;;;11.30;100.00
70968;BME280;58629;48.808;8.820;2023-08-31T04:38:34;96739.91;;;11.30;100.00
70968;BME280;58629;48.808;8.820;2023-08-31T04:41:00;96739.47;;;11.32;100.00
70968;BME280;58629;48.808;8.820;2023-08-31T04:43:26;96747.22;;;11.39;100.00
70968;BME280;58629;48.808;8.820;2023-08-31T04:45:52;96745.66;;;11.42;100.00
70968;BME280;58629;48.808;8.820;2023-08-31T04:48:17;96745.22;;;11.43;100.00
70968;BME280;58629;48.808;8.820;2023-08-31T04:50:42;96741.44;;;11.44;100.00
70968;BME280;58629;48.808;8.820;2023-08-31T04:53:08;96737.59;;;11.45;100.00
70968;BME280;58629;48.808;8.820;2023-08-31T04:55:33;96739.84;;;11.47;100.00
70968;BME280;58629;48.808;8.820;2023-08-31T04:57:58;96734.56;;;11.47;100.00
70968;BME280;58629;48.808;8.820;2023-08-31T05:00:24;96738.03;;;11.44;100.00
70968;BME280;58629;48.808;8.820;2023-08-31T05:02:49;96748.63;;;11.44;100.00
70968;BME280;58629;48.808;8.820;2023-08-31T05:05:14;96750.84;;;11.45;100.00
70968;BME280;58629;48.808;8.820;2023-08-31T05:07:43;96750.84;;;11.45;100.00
70968;BME280;58629;48.808;8.820;2023-08-31T05:10:08;96755.75;;;11.47;100.00
70968;BME280;58629;48.808;8.820;2023-08-31T05:12:34;96761.47;;;11.45;100.00
70968;BME280;58629;48.808;8.820;2023-08-31T05:14:59;96764.88;;;11.46;100.00
70968;BME280;58629;48.808;8.820;2023-08-31T05:17:25;96767.50;;;11.46;100.00
70968;BME280;58629;48.808;8.820;2023-08-31T05:19:50;96766.53;;;11.40;100.00
70968;BME280;58629;48.808;8.820;2023-08-31T05:22:15;96773.75;;;11.39;100.00
70968;BME280;58629;48.808;8.820;2023-08-31T05:24:41;96779.16;;;11.35;100.00
70968;BME280;58629;48.808;8.820;2023-08-31T05:27:06;96771.53;;;11.38;100.00
70968;BME280;58629;48.808;8.820;2023-08-31T05:29:31;96773.41;;;11.37;100.00
70968;BME280;58629;48.808;8.820;2023-08-31T05:31:57;96782.13;;;11.38;100.00
70968;BME280;58629;48.808;8.820;2023-08-31T05:34:25;96780.97;;;11.39;100.00
70968;BME280;58629;48.808;8.820;2023-08-31T05:36:50;96777.66;;;11.34;100.00
70968;BME280;58629;48.808;8.820;2023-08-31T05:39:15;96790.06;;;11.38;100.00
70968;BME280;58629;48.808;8.820;2023-08-31T05:41:44;96792.50;;;11.32;100.00
70968;BME280;58629;48.808;8.820;2023-08-31T05:44:10;96793.56;;;11.34;100.00
70968;BME280;58629;48.808;8.820;2023-08-31T05:46:35;96798.34;;;11.40;100.00
70968;BME280;58629;48.808;8.820;2023-08-31T05:49:01;96791.38;;;11.46;100.00
70968;BME280;58629;48.808;8.820;2023-08-31T05:51:27;96796.19;;;11.51;100.00
70968;BME280;58629;48.808;8.820;2023-08-31T05:53:52;96805.84;;;11.57;100.00
70968;BME280;58629;48.808;8.820;2023-08-31T05:56:19;96800.72;;;11.66;100.00
70968;BME280;58629;48.808;8.820;2023-08-31T05:58:44;96805.81;;;11.73;100.00
70968;BME280;58629;48.808;8.820;2023-08-31T06:01:09;96804.44;;;11.81;100.00
70968;BME280;58629;48.808;8.820;2023-08-31T06:03:35;96808.81;;;11.88;100.00
70968;BME280;58629;48.808;8.820;2023-08-31T06:06:01;96811.38;;;11.91;100.00
70968;BME280;58629;48.808;8.820;2023-08-31T06:08:27;96810.50;;;11.94;100.00
70968;BME280;58629;48.808;8.820;2023-08-31T06:10:52;96810.75;;;12.00;100.00
70968;BME280;58629;48.808;8.820;2023-08-31T06:13:18;96812.56;;;12.03;100.00
70968;BME280;58629;48.808;8.820;2023-08-31T06:15:43;96811.94;;;12.11;100.00
70968;BME280;58629;48.808;8.820;2023-08-31T06:18:10;96811.53;;;12.26;100.00
70968;BME280;58629;48.808;8.820;2023-08-31T06:20:35;96808.66;;;12.33;100.00
70968;BME280;58629;48.808;8.820;2023-08-31T06:23:01;96806.75;;;12.46;100.00
70968;BME280;58629;48.808;8.820;2023-08-31T06:25:27;96802.41;;;12.52;100.00
70968;BME280;58629;48.808;8.820;2023-08-31T06:27:53;96806.22;;;12.63;100.00
70968;BME280;58629;48.808;8.820;2023-08-31T06:30:18;96813.63;;;12.81;100.00
70968;BME280;58629;48.808;8.820;2023-08-31T06:32:44;96810.53;;;12.95;100.00
70968;BME280;58629;48.808;8.820;2023-08-31T06:35:11;96815.41;;;13.09;100.00
70968;BME280;58629;48.808;8.820;2023-08-31T06:37:37;96826.56;;;13.17;100.00
70968;BME280;58629;48.808;8.820;2023-08-31T06:40:02;96826.69;;;13.13;100.00
70968;BME280;58629;48.808;8.820;2023-08-31T06:42:28;96831.31;;;13.22;100.00
70968;BME280;58629;48.808;8.820;2023-08-31T06:44:53;96829.41;;;13.22;100.00
70968;BME280;58629;48.808;8.820;2023-08-31T06:47:20;96825.47;;;13.27;100.00
70968;BME280;58629;48.808;8.820;2023-08-31T06:49:46;96827.97;;;13.43;100.00
70968;BME280;58629;48.808;8.820;2023-08-31T06:52:11;96819.28;;;13.51;100.00
70968;BME280;58629;48.808;8.820;2023-08-31T06:54:36;96824.25;;;13.62;100.00
70968;BME280;58629;48.808;8.820;2023-08-31T06:57:02;96828.03;;;13.73;100.00
70968;BME280;58629;48.808;8.820;2023-08-31T06:59:28;96820.84;;;13.83;100.00
70968;BME280;58629;48.808;8.820;2023-08-31T07:01:53;96819.72;;;13.93;100.00
70968;BME280;58629;48.808;8.820;2023-08-31T07:04:19;96827.34;;;14.04;100.00
70968;BME280;58629;48.808;8.820;2023-08-31T07:06:44;96819.91;;;13.99;100.00
70968;BME280;58629;48.808;8.820;2023-08-31T07:09:09;96826.22;;;14.14;100.00
70968;BME280;58629;48.808;8.820;2023-08-31T07:11:35;96826.06;;;14.17;100.00
70968;BME280;58629;48.808;8.820;2023-08-31T07:14:01;96827.34;;;14.34;100.00
70968;BME280;58629;48.808;8.820;2023-08-31T07:16:26;96823.56;;;14.44;99.24
70968;BME280;58629;48.808;8.820;2023-08-31T07:18:52;96826.88;;;14.57;100.00
70968;BME280;58629;48.808;8.820;2023-08-31T07:21:17;96833.41;;;14.65;98.75
70968;BME280;58629;48.808;8.820;2023-08-31T07:23:42;96841.59;;;14.80;95.58
70968;BME280;58629;48.808;8.820;2023-08-31T07:26:08;96853.44;;;14.79;95.27
70968;BME280;58629;48.808;8.820;2023-08-31T07:28:33;96852.53;;;14.73;96.35
70968;BME280;58629;48.808;8.820;2023-08-31T07:31:03;96855.66;;;14.81;96.50
70968;BME280;58629;48.808;8.820;2023-08-31T07:33:30;96851.53;;;14.80;94.56
70968;BME280;58629;48.808;8.820;2023-08-31T07:35:57;96860.41;;;14.86;94.13
70968;BME280;58629;48.808;8.820;2023-08-31T07:38:23;96863.25;;;14.91;92.53
70968;BME280;58629;48.808;8.820;2023-08-31T07:40:49;96861.50;;;14.97;93.78
70968;BME280;58629;48.808;8.820;2023-08-31T07:43:14;96858.38;;;14.99;91.07
70968;BME280;58629;48.808;8.820;2023-08-31T07:45:39;96863.31;;;15.18;92.85
70968;BME280;58629;48.808;8.820;2023-08-31T07:48:05;96867.59;;;15.16;90.87
70968;BME280;58629;48.808;8.820;2023-08-31T07:50:32;96869.44;;;15.37;88.29
70968;BME280;58629;48.808;8.820;2023-08-31T07:52:57;96864.69;;;15.41;88.48
70968;BME280;58629;48.808;8.820;2023-08-31T07:55:22;96861.16;;;15.62;90.44
70968;BME280;58629;48.808;8.820;2023-08-31T07:57:47;96858.66;;;15.77;90.47
70968;BME280;58629;48.808;8.820;2023-08-31T08:00:13;96862.63;;;15.81;90.06
70968;BME280;58629;48.808;8.820;2023-08-31T08:02:40;96867.22;;;15.90;88.36
70968;BME280;58629;48.808;8.820;2023-08-31T08:05:05;96878.78;;;16.14;82.29
70968;BME280;58629;48.808;8.820;2023-08-31T08:07:31;96883.34;;;16.22;82.89
70968;BME280;58629;48.808;8.820;2023-08-31T08:09:56;96890.44;;;16.43;81.30
70968;BME280;58629;48.808;8.820;2023-08-31T08:12:22;96887.34;;;16.27;74.26
70968;BME280;58629;48.808;8.820;2023-08-31T08:14:47;96884.38;;;16.34;77.02
70968;BME280;58629;48.808;8.820;2023-08-31T08:17:12;96887.69;;;16.02;74.92
70968;BME280;58629;48.808;8.820;2023-08-31T08:19:37;96894.69;;;15.90;75.89
70968;BME280;58629;48.808;8.820;2023-08-31T08:22:03;96889.34;;;15.90;76.26
70968;BME280;58629;48.808;8.820;2023-08-31T08:24:28;96890.94;;;15.79;72.13
70968;BME280;58629;48.808;8.820;2023-08-31T08:26:54;96890.22;;;15.78;71.33
70968;BME280;58629;48.808;8.820;2023-08-31T08:29:19;96889.31;;;15.81;72.22
70968;BME280;58629;48.808;8.820;2023-08-31T08:31:44;96894.81;;;15.96;72.61
70968;BME280;58629;48.808;8.820;2023-08-31T08:34:10;96893.78;;;15.84;72.56
70968;BME280;58629;48.808;8.820;2023-08-31T08:36:35;96899.72;;;15.97;66.79
70968;BME280;58629;48.808;8.820;2023-08-31T08:39:00;96897.03;;;16.06;70.05
70968;BME280;58629;48.808;8.820;2023-08-31T08:41:28;96894.22;;;15.83;70.67
70968;BME280;58629;48.808;8.820;2023-08-31T08:43:56;96903.66;;;16.29;72.03
70968;BME280;58629;48.808;8.820;2023-08-31T08:46:26;96908.66;;;16.63;68.34
70968;BME280;58629;48.808;8.820;2023-08-31T08:48:53;96903.69;;;16.80;65.15
70968;BME280;58629;48.808;8.820;2023-08-31T08:51:20;96899.34;;;16.91;64.60
70968;BME280;58629;48.808;8.820;2023-08-31T08:53:47;96908.66;;;17.05;62.66
70968;BME280;58629;48.808;8.820;2023-08-31T08:56:14;96917.94;;;17.18;68.43
70968;BME280;58629;48.808;8.820;2023-08-31T08:58:39;96913.56;;;17.30;66.32
70968;BME280;58629;48.808;8.820;2023-08-31T09:01:07;96913.38;;;17.33;65.61
70968;BME280;58629;48.808;8.820;2023-08-31T09:03:32;96909.22;;;17.09;64.08
70968;BME280;58629;48.808;8.820;2023-08-31T09:05:59;96898.16;;;17.40;62.65
70968;BME280;58629;48.808;8.820;2023-08-31T09:08:27;96913.75;;;17.50;61.67
70968;BME280;58629;48.808;8.820;2023-08-31T09:10:55;96915.94;;;17.75;59.85
70968;BME280;58629;48.808;8.820;2023-08-31T09:13:26;96919.94;;;17.80;60.26
70968;BME280;58629;48.808;8.820;2023-08-31T09:15:51;96924.66;;;17.85;59.07
70968;BME280;58629;48.808;8.820;2023-08-31T09:18:25;96926.06;;;17.57;60.01
70968;BME280;58629;48.808;8.820;2023-08-31T09:20:51;96929.47;;;17.57;61.85
70968;BME280;58629;48.808;8.820;2023-08-31T09:23:17;96925.44;;;17.62;60.01
70968;BME280;58629;48.808;8.820;2023-08-31T09:25:47;96926.97;;;17.54;59.45
70968;BME280;58629;48.808;8.820;2023-08-31T09:28:17;96929.34;;;17.52;60.17
70968;BME280;58629;48.808;8.820;2023-08-31T09:30:46;96924.84;;;17.58;60.68
70968;BME280;58629;48.808;8.820;2023-08-31T09:33:14;96928.19;;;17.53;58.98
70968;BME280;58629;48.808;8.820;2023-08-31T09:35:47;96917.94;;;17.42;58.49
70968;BME280;58629;48.808;8.820;2023-08-31T09:38:14;96928.19;;;17.53;62.86
70968;BME280;58629;48.808;8.820;2023-08-31T09:40:39;96922.19;;;17.96;62.18
70968;BME280;58629;48.808;8.820;2023-08-31T09:43:05;96924.06;;;18.19;57.50
70968;BME280;58629;48.808;8.820;2023-08-31T09:45:32;96926.34;;;18.50;57.81
70968;BME280;58629;48.808;8.820;2023-08-31T09:47:59;96932.44;;;17.97;59.04
70968;BME280;58629;48.808;8.820;2023-08-31T09:50:28;96933.38;;;17.71;59.12
70968;BME280;58629;48.808;8.820;2023-08-31T09:52:55;96940.00;;;17.84;55.36
70968;BME280;58629;48.808;8.820;2023-08-31T09:55:25;96934.66;;;17.84;55.23
70968;BME280;58629;48.808;8.820;2023-08-31T09:57:52;96938.41;;;17.78;55.90
70968;BME280;58629;48.808;8.820;2023-08-31T10:00:18;96941.38;;;17.56;59.44
70968;BME280;58629;48.808;8.820;2023-08-31T10:02:44;96948.63;;;17.32;58.24
70968;BME280;58629;48.808;8.820;2023-08-31T10:05:12;96951.97;;;17.18;58.53
70968;BME280;58629;48.808;8.820;2023-08-31T10:07:37;96948.78;;;16.96;60.69
70968;BME280;58629;48.808;8.820;2023-08-31T10:10:03;96948.44;;;17.12;59.76
70968;BME280;58629;48.808;8.820;2023-08-31T10:12:30;96945.22;;;17.31;59.42
70968;BME280;58629;48.808;8.820;2023-08-31T10:14:56;96951.34;;;17.56;59.49
70968;BME280;58629;48.808;8.820;2023-08-31T10:17:24;96945.19;;;17.88;60.69
70968;BME280;58629;48.808;8.820;2023-08-31T10:19:50;96949.56;;;18.00;64.19
70968;BME280;58629;48.808;8.820;2023-08-31T10:22:16;96948.59;;;17.08;62.14
70968;BME280;58629;48.808;8.820;2023-08-31T10:25:01;96948.38;;;16.88;59.87
70968;BME280;58629;48.808;8.820;2023-08-31T10:27:35;96954.72;;;16.49;63.26
70968;BME280;58629;48.808;8.820;2023-08-31T10:33:01;96953.88;;;17.26;64.31
70968;BME280;58629;48.808;8.820;2023-08-31T10:35:41;96948.09;;;17.75;65.87
70968;BME280;58629;48.808;8.820;2023-08-31T10:38:16;96940.16;;;17.81;60.04
70968;BME280;58629;48.808;8.820;2023-08-31T10:46:18;96945.81;;;16.94;61.75
70968;BME280;58629;48.808;8.820;2023-08-31T10:51:34;96944.91;;;16.55;61.88
70968;BME280;58629;48.808;8.820;2023-08-31T10:59:24;96933.53;;;17.53;61.56
70968;BME280;58629;48.808;8.820;2023-08-31T11:01:58;96936.97;;;17.44;61.85
70968;BME280;58629;48.808;8.820;2023-08-31T11:04:26;96930.56;;;17.89;60.67
70968;BME280;58629;48.808;8.820;2023-08-31T11:07:18;96929.53;;;17.72;60.17
70968;BME280;58629;48.808;8.820;2023-08-31T11:09:45;96937.16;;;17.64;59.34
70968;BME280;58629;48.808;8.820;2023-08-31T11:12:11;96928.47;;;17.93;59.26
70968;BME280;58629;48.808;8.820;2023-08-31T11:14:36;96931.63;;;18.06;59.68
70968;BME280;58629;48.808;8.820;2023-08-31T11:17:02;96924.19;;;18.39;59.47
70968;BME280;58629;48.808;8.820;2023-08-31T11:19:30;96914.56;;;18.33;64.16
70968;BME280;58629;48.808;8.820;2023-08-31T11:21:55;96908.94;;;18.45;58.30
70968;BME280;58629;48.808;8.820;2023-08-31T11:24:21;96909.41;;;18.44;57.51
70968;BME280;58629;48.808;8.820;2023-08-31T11:26:50;96910.50;;;18.37;58.96
70968;BME280;58629;48.808;8.820;2023-08-31T11:29:15;96917.69;;;18.31;61.91
70968;BME280;58629;48.808;8.820;2023-08-31T11:31:41;96921.47;;;18.10;59.43
70968;BME280;58629;48.808;8.820;2023-08-31T11:34:07;96922.50;;;18.27;60.78
70968;BME280;58629;48.808;8.820;2023-08-31T11:36:33;96929.34;;;18.13;57.57
70968;BME280;58629;48.808;8.820;2023-08-31T11:38:58;96926.81;;;17.95;56.54
70968;BME280;58629;48.808;8.820;2023-08-31T11:41:24;96927.75;;;17.92;59.30
70968;BME280;58629;48.808;8.820;2023-08-31T11:43:49;96933.50;;;17.76;59.38
70968;BME280;58629;48.808;8.820;2023-08-31T11:46:16;96935.38;;;17.61;59.79
70968;BME280;58629;48.808;8.820;2023-08-31T11:48:43;96927.81;;;17.60;58.92
70968;BME280;58629;48.808;8.820;2023-08-31T11:51:10;96924.56;;;17.56;58.44
70968;BME280;58629;48.808;8.820;2023-08-31T11:53:36;96926.28;;;17.68;59.71
70968;BME280;58629;48.808;8.820;2023-08-31T11:56:02;96925.00;;;17.78;60.13
70968;BME280;58629;48.808;8.820;2023-08-31T11:58:27;96926.25;;;18.59;55.36
70968;BME280;58629;48.808;8.820;2023-08-31T12:00:59;96922.19;;;18.98;56.68
70968;BME280;58629;48.808;8.820;2023-08-31T12:03:25;96921.47;;;19.32;54.90
70968;BME280;58629;48.808;8.820;2023-08-31T12:05:52;96918.50;;;19.30;56.45
70968;BME280;58629;48.808;8.820;2023-08-31T12:08:26;96919.41;;;19.07;56.77
70968;BME280;58629;48.808;8.820;2023-08-31T12:10:52;96926.38;;;18.99;57.94
70968;BME280;58629;48.808;8.820;2023-08-31T12:13:18;96924.94;;;18.83;54.12
70968;BME280;58629;48.808;8.820;2023-08-31T12:15:44;96915.47;;;18.88;54.98
70968;BME280;58629;48.808;8.820;2023-08-31T12:18:11;96916.97;;;18.74;57.14
70968;BME280;58629;48.808;8.820;2023-08-31T12:20:47;96913.19;;;18.37;57.52
70968;BME280;58629;48.808;8.820;2023-08-31T12:23:13;96923.03;;;18.16;57.27
70968;BME280;58629;48.808;8.820;2023-08-31T12:25:49;96921.72;;;17.97;58.68
70968;BME280;58629;48.808;8.820;2023-08-31T12:28:14;96919.97;;;17.94;60.01
70968;BME280;58629;48.808;8.820;2023-08-31T12:30:47;96915.84;;;18.37;58.33
70968;BME280;58629;48.808;8.820;2023-08-31T12:33:13;96919.41;;;18.43;59.90
70968;BME280;58629;48.808;8.820;2023-08-31T12:35:38;96920.78;;;18.53;59.83
70968;BME280;58629;48.808;8.820;2023-08-31T12:38:04;96914.75;;;18.73;60.10
70968;BME280;58629;48.808;8.820;2023-08-31T12:40:29;96919.16;;;19.05;57.52
70968;BME280;58629;48.808;8.820;2023-08-31T12:42:54;96925.28;;;19.26;57.44
70968;BME280;58629;48.808;8.820;2023-08-31T12:45:20;96926.59;;;18.66;57.66
70968;BME280;58629;48.808;8.820;2023-08-31T12:47:45;96930.78;;;18.53;58.27
70968;BME280;58629;48.808;8.820;2023-08-31T12:50:10;96930.72;;;18.38;59.84
70968;BME280;58629;48.808;8.820;2023-08-31T12:52:36;96915.78;;;19.10;59.62
70968;BME280;58629;48.808;8.820;2023-08-31T12:55:09;96916.19;;;19.78;58.60
70968;BME280;58629;48.808;8.820;2023-08-31T12:57:34;96908.22;;;20.09;55.55
70968;BME280;58629;48.808;8.820;2023-08-31T13:00:00;96911.47;;;19.93;55.19
70968;BME280;58629;48.808;8.820;2023-08-31T13:02:25;96913.25;;;19.56;54.86
70968;BME280;58629;48.808;8.820;2023-08-31T13:04:50;96908.38;;;20.00;54.55
70968;BME280;58629;48.808;8.820;2023-08-31T13:07:16;96910.03;;;20.43;52.33
70968;BME280;58629;48.808;8.820;2023-08-31T13:09:41;96910.66;;;20.33;54.89